createdAt,value
2022-10-26T00:00:32.174Z,89.15
2022-10-26T00:02:58.742Z,90.29
2022-10-26T00:05:25.398Z,90.72
2022-10-26T00:07:52.040Z,91.29
2022-10-26T00:10:21.751Z,91.51
2022-10-26T00:12:50.846Z,92.14
2022-10-26T00:15:19.324Z,92.63
2022-10-26T00:17:47.693Z,93.06
2022-10-26T00:20:15.107Z,93.54
2022-10-26T00:22:41.703Z,93.50
2022-10-26T00:25:08.854Z,93.96
2022-10-26T00:27:35.952Z,94.08
2022-10-26T00:30:06.372Z,94.18
2022-10-26T00:32:33.951Z,94.32
2022-10-26T00:35:10.501Z,94.20
2022-10-26T00:37:47.734Z,93.98
2022-10-26T00:40:14.563Z,93.36
2022-10-26T00:42:41.127Z,93.47
2022-10-26T00:45:20.057Z,93.14
2022-10-26T00:47:55.790Z,92.58
2022-10-26T00:50:31.682Z,92.88
2022-10-26T00:53:00.637Z,92.83
2022-10-26T00:55:33.566Z,91.94
2022-10-26T00:58:02.861Z,91.45
2022-10-26T01:00:30.083Z,91.11
2022-10-26T01:02:59.933Z,90.98
2022-10-26T01:05:27.223Z,90.23
2022-10-26T01:07:54.644Z,89.92
2022-10-26T01:10:21.776Z,88.54
2022-10-26T01:12:49.145Z,86.76
2022-10-26T01:15:16.237Z,86.92
2022-10-26T01:17:45.622Z,88.05
2022-10-26T01:20:12.260Z,88.66
2022-10-26T01:23:09.442Z,89.43
2022-10-26T01:25:42.036Z,89.64
2022-10-26T01:28:32.113Z,89.87
2022-10-26T01:31:03.197Z,90.68
2022-10-26T01:33:39.050Z,91.28
2022-10-26T01:36:27.222Z,91.49
2022-10-26T01:38:59.814Z,92.77
2022-10-26T01:41:31.766Z,93.84
2022-10-26T01:44:07.107Z,94.03
2022-10-26T01:46:38.439Z,94.55
2022-10-26T01:49:11.933Z,95.00
2022-10-26T01:51:41.834Z,94.86
2022-10-26T01:54:08.469Z,94.47
2022-10-26T01:56:38.385Z,94.13
2022-10-26T01:59:04.912Z,94.45
2022-10-26T02:01:37.179Z,94.92
2022-10-26T02:04:10.053Z,94.45
2022-10-26T02:06:52.493Z,94.19
2022-10-26T02:09:21.989Z,95.30
2022-10-26T02:11:52.039Z,96.33
2022-10-26T02:14:29.597Z,96.07
2022-10-26T02:17:23.585Z,96.68
2022-10-26T02:19:58.664Z,96.44
2022-10-26T02:22:30.047Z,95.66
2022-10-26T02:25:00.452Z,95.28
2022-10-26T02:27:32.680Z,95.56
2022-10-26T02:30:00.546Z,94.59
2022-10-26T02:32:32.003Z,92.94
2022-10-26T02:35:01.169Z,93.10
2022-10-26T02:37:29.221Z,90.62
2022-10-26T02:39:58.883Z,91.22
2022-10-26T02:42:27.257Z,92.11
2022-10-26T02:44:59.099Z,92.11
2022-10-26T02:47:26.786Z,90.86
2022-10-26T02:49:54.886Z,90.50
2022-10-26T02:52:29.810Z,91.92
2022-10-26T02:55:16.974Z,91.58
2022-10-26T02:57:47.936Z,90.11
2022-10-26T03:00:17.114Z,88.98
2022-10-26T03:02:48.339Z,89.55
2022-10-26T03:05:28.016Z,88.70
2022-10-26T03:07:55.531Z,87.62
2022-10-26T03:10:22.458Z,87.24
2022-10-26T03:12:49.316Z,86.26
2022-10-26T03:15:16.187Z,84.86
2022-10-26T03:17:42.849Z,84.73
2022-10-26T03:20:10.545Z,85.06
2022-10-26T03:22:37.152Z,84.78
2022-10-26T03:25:04.405Z,83.93
2022-10-26T03:27:31.460Z,84.59
2022-10-26T03:29:58.051Z,84.68
2022-10-26T03:32:24.591Z,84.39
2022-10-26T03:34:51.236Z,82.62
2022-10-26T03:37:17.858Z,81.65
2022-10-26T03:39:44.446Z,80.94
2022-10-26T03:42:11.008Z,81.31
2022-10-26T03:44:37.578Z,80.98
2022-10-26T03:47:04.163Z,81.06
2022-10-26T03:49:30.750Z,81.64
2022-10-26T03:51:57.390Z,82.42
2022-10-26T03:54:23.988Z,83.24
2022-10-26T03:56:52.767Z,81.71
2022-10-26T03:59:21.716Z,82.78
2022-10-26T04:01:49.217Z,83.47
2022-10-26T04:04:17.256Z,84.71
2022-10-26T04:06:43.906Z,83.72
2022-10-26T04:09:10.506Z,84.00
2022-10-26T04:11:37.065Z,83.66
2022-10-26T04:14:03.667Z,83.00
2022-10-26T04:16:33.271Z,83.74
2022-10-26T04:19:00.887Z,81.55
2022-10-26T04:21:27.443Z,82.05
2022-10-26T04:23:54.005Z,82.12
2022-10-26T04:26:20.686Z,82.11
2022-10-26T04:28:47.256Z,82.45
2022-10-26T04:31:13.805Z,83.96
2022-10-26T04:33:40.386Z,83.99
2022-10-26T04:36:07.484Z,84.51
2022-10-26T04:38:34.091Z,84.91
2022-10-26T04:41:00.649Z,84.91
2022-10-26T04:43:27.234Z,85.20
2022-10-26T04:45:58.068Z,86.00
2022-10-26T04:51:00.330Z,85.96
2022-10-26T04:53:27.531Z,85.83
2022-10-26T04:55:58.611Z,84.32
2022-10-26T04:58:25.624Z,84.24
2022-10-26T05:00:52.232Z,84.85
2022-10-26T05:03:18.834Z,84.98
2022-10-26T05:05:45.458Z,85.43
2022-10-26T05:08:12.018Z,85.34
2022-10-26T05:10:38.643Z,85.30
2022-10-26T05:13:05.318Z,85.67
2022-10-26T05:15:31.973Z,85.50
2022-10-26T05:18:01.247Z,86.46
2022-10-26T05:20:30.979Z,86.24
2022-10-26T05:22:58.758Z,86.44
2022-10-26T05:25:25.755Z,86.54
2022-10-26T05:27:52.320Z,86.80
2022-10-26T05:30:18.895Z,86.95
2022-10-26T05:32:45.747Z,86.72
2022-10-26T05:35:12.454Z,86.89
2022-10-26T05:37:39.043Z,87.94
2022-10-26T05:40:06.340Z,87.19
2022-10-26T05:42:33.694Z,86.80
2022-10-26T05:45:00.265Z,87.14
2022-10-26T05:47:26.830Z,87.43
2022-10-26T05:49:53.418Z,87.41
2022-10-26T05:52:19.994Z,87.04
2022-10-26T05:54:46.583Z,86.87
2022-10-26T05:57:13.805Z,86.83
2022-10-26T05:59:40.701Z,87.29
2022-10-26T06:02:16.296Z,87.04
2022-10-26T06:04:49.722Z,86.59
2022-10-26T06:07:20.861Z,86.46
2022-10-26T06:09:48.237Z,87.57
2022-10-26T06:12:18.454Z,87.11
2022-10-26T06:14:46.616Z,87.09
2022-10-26T06:17:32.186Z,86.23
2022-10-26T06:20:21.253Z,86.18
2022-10-26T06:23:01.842Z,87.09
2022-10-26T06:25:38.345Z,86.15
2022-10-26T06:28:21.185Z,86.49
2022-10-26T06:30:47.937Z,86.32
2022-10-26T06:33:28.826Z,86.49
2022-10-26T06:36:13.530Z,86.09
2022-10-26T06:38:44.391Z,87.41
2022-10-26T06:41:15.467Z,86.44
2022-10-26T06:43:42.342Z,86.56
2022-10-26T06:46:39.663Z,86.85
2022-10-26T06:49:20.121Z,85.97
2022-10-26T06:51:52.675Z,86.42
2022-10-26T06:54:25.667Z,86.00
2022-10-26T06:56:53.261Z,86.62
2022-10-26T06:59:50.462Z,86.30
2022-10-26T07:02:17.580Z,86.42
2022-10-26T07:04:44.651Z,86.46
2022-10-26T07:07:14.258Z,87.06
2022-10-26T07:09:40.830Z,87.29
2022-10-26T07:12:08.270Z,87.77
2022-10-26T07:14:34.905Z,87.31
2022-10-26T07:17:01.794Z,87.78
2022-10-26T07:19:28.427Z,88.16
2022-10-26T07:21:56.799Z,88.30
2022-10-26T07:24:24.013Z,88.35
2022-10-26T07:26:50.843Z,88.39
2022-10-26T07:29:18.281Z,88.99
2022-10-26T07:31:44.929Z,88.78
2022-10-26T07:34:11.540Z,86.92
2022-10-26T07:36:38.157Z,87.63
2022-10-26T07:39:04.939Z,85.20
2022-10-26T07:41:31.758Z,84.66
2022-10-26T07:43:58.487Z,85.36
2022-10-26T07:46:25.597Z,85.08
2022-10-26T07:48:52.508Z,85.41
2022-10-26T07:51:19.440Z,86.25
2022-10-26T07:53:46.832Z,87.15
2022-10-26T07:56:13.882Z,86.16
2022-10-26T07:58:40.514Z,86.44
2022-10-26T08:01:12.408Z,86.10
2022-10-26T08:03:39.443Z,86.02
2022-10-26T08:06:07.565Z,86.64
2022-10-26T08:08:34.136Z,87.11
2022-10-26T08:11:00.975Z,86.71
2022-10-26T08:13:27.720Z,87.02
2022-10-26T08:16:02.489Z,86.15
2022-10-26T08:18:29.201Z,83.38
2022-10-26T08:21:10.146Z,80.81
2022-10-26T08:23:38.860Z,80.89
2022-10-26T08:26:05.917Z,80.97
2022-10-26T08:28:32.750Z,79.75
2022-10-26T08:30:59.344Z,77.83
2022-10-26T08:33:26.409Z,76.99
2022-10-26T08:36:01.715Z,75.71
2022-10-26T08:38:29.130Z,75.46
2022-10-26T08:40:57.758Z,74.79
2022-10-26T08:43:31.964Z,74.53
2022-10-26T08:46:05.751Z,74.39
2022-10-26T08:48:35.939Z,73.98
2022-10-26T08:51:15.531Z,74.04
2022-10-26T08:53:54.768Z,74.46
2022-10-26T08:56:26.039Z,73.89
2022-10-26T08:59:00.679Z,73.88
2022-10-26T09:01:30.450Z,73.94
2022-10-26T09:03:58.391Z,74.07
2022-10-26T09:06:34.926Z,74.08
2022-10-26T09:09:13.517Z,72.50
2022-10-26T09:11:52.951Z,71.18
2022-10-26T09:14:36.449Z,70.95
2022-10-26T09:17:14.903Z,71.44
2022-10-26T09:19:57.840Z,69.86
2022-10-26T09:22:39.214Z,69.46
2022-10-26T09:25:27.843Z,68.96
2022-10-26T09:27:58.656Z,68.89
2022-10-26T09:30:25.233Z,69.65
2022-10-26T09:32:59.549Z,68.78
2022-10-26T09:38:12.741Z,70.20
2022-10-26T09:40:50.024Z,70.20
2022-10-26T09:43:37.880Z,70.27
2022-10-26T09:46:04.597Z,70.15
2022-10-26T09:48:41.330Z,70.53
2022-10-26T09:51:07.948Z,70.31
2022-10-26T09:53:34.785Z,70.42
2022-10-26T09:56:05.831Z,69.94
2022-10-26T09:58:59.951Z,70.08
2022-10-26T10:01:38.181Z,70.35
2022-10-26T10:04:14.103Z,70.76
2022-10-26T10:06:41.038Z,71.31
2022-10-26T10:09:12.379Z,70.29
2022-10-26T10:11:43.049Z,70.70
2022-10-26T10:14:15.985Z,70.66
2022-10-26T10:16:51.981Z,70.96
2022-10-26T10:19:33.823Z,69.86
2022-10-26T10:22:18.588Z,70.38
2022-10-26T10:25:02.454Z,69.74
2022-10-26T10:27:30.761Z,69.88
2022-10-26T10:30:03.036Z,69.63
2022-10-26T10:32:35.651Z,69.75
2022-10-26T10:35:23.749Z,70.46
2022-10-26T10:37:51.888Z,69.97
2022-10-26T10:40:21.730Z,70.20
2022-10-26T10:42:51.087Z,69.95
2022-10-26T10:45:24.363Z,69.64
2022-10-26T10:48:20.608Z,69.73
2022-10-26T10:50:54.768Z,69.91
2022-10-26T10:53:44.487Z,69.38
2022-10-26T10:56:22.146Z,69.47
2022-10-26T10:58:55.064Z,69.01
2022-10-26T11:01:25.472Z,69.30
2022-10-26T11:06:50.186Z,69.84
2022-10-26T11:09:24.941Z,69.36
2022-10-26T11:11:58.971Z,70.51
2022-10-26T11:14:32.890Z,70.81
2022-10-26T11:17:19.361Z,70.93
2022-10-26T11:19:55.687Z,71.52
2022-10-26T11:25:54.933Z,71.65
2022-10-26T11:28:43.442Z,70.53
2022-10-26T11:31:21.575Z,69.57
2022-10-26T11:34:11.958Z,68.49
2022-10-26T11:36:42.000Z,68.79
2022-10-26T11:39:21.103Z,68.34
2022-10-26T11:42:15.499Z,67.87
2022-10-26T11:44:52.753Z,67.16
2022-10-26T11:47:34.850Z,66.72
2022-10-26T11:50:29.662Z,65.59
2022-10-26T11:53:08.433Z,66.52
2022-10-26T11:55:35.389Z,66.57
2022-10-26T11:58:03.322Z,67.15
2022-10-26T12:00:30.435Z,66.87
2022-10-26T12:03:02.774Z,65.89
2022-10-26T12:05:32.062Z,65.14
2022-10-26T12:08:11.715Z,64.22
2022-10-26T12:10:41.503Z,63.22
2022-10-26T12:13:39.646Z,63.14
2022-10-26T12:16:19.133Z,62.49
2022-10-26T12:18:56.642Z,61.81
2022-10-26T12:21:29.116Z,61.93
2022-10-26T12:24:00.883Z,62.43
2022-10-26T12:26:27.384Z,63.07
2022-10-26T12:29:03.023Z,63.57
2022-10-26T12:31:32.406Z,63.63
2022-10-26T12:34:00.294Z,63.93
2022-10-26T12:36:47.628Z,62.88
2022-10-26T12:39:34.048Z,63.09
2022-10-26T12:42:06.539Z,63.05
2022-10-26T12:44:48.557Z,63.48
2022-10-26T12:47:30.324Z,63.35
2022-10-26T12:50:09.376Z,63.97
2022-10-26T12:52:41.469Z,63.71
2022-10-26T12:55:48.644Z,63.78
2022-10-26T12:58:18.158Z,63.70
2022-10-26T13:01:08.471Z,63.69
2022-10-26T13:04:00.034Z,63.87
2022-10-26T13:07:07.302Z,64.11
2022-10-26T13:09:34.128Z,64.44
2022-10-26T13:12:03.464Z,64.02
2022-10-26T13:14:50.923Z,63.78
2022-10-26T13:17:29.724Z,64.55
2022-10-26T13:19:59.423Z,65.41
2022-10-26T13:22:26.640Z,65.09
2022-10-26T13:25:02.281Z,65.03
2022-10-26T13:27:34.882Z,65.09
2022-10-26T13:30:04.213Z,65.10
2022-10-26T13:32:40.460Z,65.24
2022-10-26T13:35:13.439Z,65.70
2022-10-26T13:37:47.073Z,65.69
2022-10-26T13:40:18.627Z,66.29
2022-10-26T13:42:48.949Z,66.00
2022-10-26T13:45:40.760Z,65.85
2022-10-26T13:48:36.790Z,66.61
2022-10-26T13:51:13.034Z,66.80
2022-10-26T13:53:47.345Z,66.63
2022-10-26T13:56:46.476Z,66.99
2022-10-26T13:59:13.923Z,66.92
2022-10-26T14:01:40.772Z,66.55
2022-10-26T14:04:27.607Z,66.90
2022-10-26T14:06:55.046Z,67.13
2022-10-26T14:09:22.778Z,66.31
2022-10-26T14:11:52.198Z,66.20
2022-10-26T14:14:25.713Z,65.85
2022-10-26T14:16:53.642Z,66.26
2022-10-26T14:19:25.927Z,67.13
2022-10-26T14:21:53.621Z,67.28
2022-10-26T14:24:46.826Z,67.68
2022-10-26T14:27:18.773Z,67.90
2022-10-26T14:29:49.881Z,67.06
2022-10-26T14:32:32.317Z,68.25
2022-10-26T14:34:59.244Z,67.46
2022-10-26T14:37:44.211Z,67.42
2022-10-26T14:40:17.480Z,68.03
2022-10-26T14:42:50.644Z,68.05
2022-10-26T14:45:29.804Z,68.05
2022-10-26T14:48:21.797Z,68.84
2022-10-26T14:51:02.849Z,68.75
2022-10-26T14:53:40.631Z,68.77
2022-10-26T14:56:21.919Z,68.88
2022-10-26T14:58:49.454Z,69.23
2022-10-26T15:01:21.996Z,70.19
2022-10-26T15:03:59.828Z,70.08
2022-10-26T15:06:29.113Z,69.58
2022-10-26T15:09:00.756Z,70.30
2022-10-26T15:11:28.617Z,70.35
2022-10-26T15:13:57.591Z,70.24
2022-10-26T15:16:27.740Z,70.61
2022-10-26T15:19:01.193Z,70.97
2022-10-26T15:21:32.498Z,71.41
2022-10-26T15:24:00.103Z,71.62
2022-10-26T15:26:27.075Z,71.33
2022-10-26T15:28:53.919Z,71.06
2022-10-26T15:31:20.443Z,71.09
2022-10-26T15:33:52.969Z,71.65
2022-10-26T15:36:21.646Z,71.63
2022-10-26T15:38:48.266Z,71.78
2022-10-26T15:41:27.546Z,72.73
2022-10-26T15:43:59.448Z,72.90
2022-10-26T15:46:30.493Z,72.99
2022-10-26T15:48:59.870Z,73.03
2022-10-26T15:51:26.561Z,73.87
2022-10-26T15:53:53.258Z,74.24
2022-10-26T15:56:23.402Z,75.54
2022-10-26T15:58:50.196Z,76.01
2022-10-26T16:01:19.362Z,76.33
2022-10-26T16:03:46.428Z,77.69
2022-10-26T16:06:19.946Z,78.51
2022-10-26T16:08:51.114Z,78.94
2022-10-26T16:11:18.995Z,79.08
2022-10-26T16:13:46.032Z,79.75
2022-10-26T16:16:14.519Z,80.33
2022-10-26T16:18:41.156Z,81.86
2022-10-26T16:21:12.427Z,81.63
2022-10-26T16:23:39.471Z,81.85
2022-10-26T16:26:07.028Z,82.61
2022-10-26T16:28:33.980Z,83.36
2022-10-26T16:31:10.693Z,83.74
2022-10-26T16:33:37.300Z,83.47
2022-10-26T16:36:05.177Z,84.26
2022-10-26T16:38:32.764Z,84.58
2022-10-26T16:41:03.514Z,84.68
2022-10-26T16:43:35.753Z,83.80
2022-10-26T16:46:08.759Z,84.54
2022-10-26T16:48:36.918Z,85.20
2022-10-26T16:51:24.559Z,86.08
2022-10-26T16:53:52.822Z,86.68
2022-10-26T16:56:25.895Z,86.60
2022-10-26T16:58:52.689Z,87.66
2022-10-26T17:01:20.394Z,87.35
2022-10-26T17:03:48.582Z,87.26
2022-10-26T17:06:16.257Z,87.10
2022-10-26T17:08:43.357Z,87.14
2022-10-26T17:11:16.493Z,87.41
2022-10-26T17:13:44.011Z,87.47
2022-10-26T17:16:13.932Z,87.41
2022-10-26T17:18:41.594Z,86.51
2022-10-26T17:21:09.248Z,87.38
2022-10-26T17:23:36.246Z,88.49
2022-10-26T17:26:04.957Z,87.31
2022-10-26T17:28:32.217Z,88.08
2022-10-26T17:31:08.602Z,86.93
2022-10-26T17:33:36.991Z,88.03
2022-10-26T17:36:06.065Z,87.59
2022-10-26T17:38:34.863Z,87.42
2022-10-26T17:41:07.208Z,88.00
2022-10-26T17:43:36.433Z,88.25
2022-10-26T17:46:05.814Z,88.98
2022-10-26T17:48:32.705Z,87.90
2022-10-26T17:51:00.655Z,88.11
2022-10-26T17:53:28.100Z,88.48
2022-10-26T17:56:28.523Z,88.76
2022-10-26T17:58:57.434Z,88.17
2022-10-26T18:01:25.126Z,87.99
2022-10-26T18:03:52.617Z,88.07
2022-10-26T18:06:19.792Z,89.22
2022-10-26T18:08:47.004Z,89.94
2022-10-26T18:11:19.078Z,91.69
2022-10-26T18:13:47.321Z,91.94
2022-10-26T18:16:16.670Z,91.52
2022-10-26T18:18:50.203Z,91.20
2022-10-26T18:21:19.678Z,91.82
2022-10-26T18:23:46.605Z,91.65
2022-10-26T18:26:21.649Z,91.84
2022-10-26T18:28:48.366Z,91.90
2022-10-26T18:31:18.376Z,92.44
2022-10-26T18:33:45.275Z,94.17
2022-10-26T18:36:15.359Z,91.68
2022-10-26T18:38:42.836Z,92.72
2022-10-26T18:41:13.979Z,93.47
2022-10-26T18:43:42.518Z,93.70
2022-10-26T18:46:16.252Z,95.10
2022-10-26T18:48:45.861Z,95.32
2022-10-26T18:51:15.728Z,92.88
2022-10-26T18:53:43.756Z,93.30
2022-10-26T18:56:13.027Z,91.90
2022-10-26T18:58:41.645Z,91.86
2022-10-26T19:01:16.117Z,92.62
2022-10-26T19:03:43.825Z,92.79
2022-10-26T19:06:19.326Z,93.67
2022-10-26T19:08:46.597Z,92.46
2022-10-26T19:11:15.542Z,93.07
2022-10-26T19:13:42.806Z,94.21
2022-10-26T19:16:17.180Z,95.37
2022-10-26T19:18:48.901Z,93.26
2022-10-26T19:21:20.711Z,94.15
2022-10-26T19:23:49.813Z,94.20
2022-10-26T19:26:18.829Z,93.60
2022-10-26T19:28:45.469Z,93.90
2022-10-26T19:31:14.039Z,93.31
2022-10-26T19:33:41.197Z,94.09
2022-10-26T19:36:11.370Z,94.21
2022-10-26T19:38:38.825Z,95.35
2022-10-26T19:41:11.740Z,95.10
2022-10-26T19:43:39.705Z,94.07
2022-10-26T19:46:14.920Z,93.67
2022-10-26T19:48:42.063Z,93.43
2022-10-26T19:51:09.021Z,93.01
2022-10-26T19:53:36.022Z,93.46
2022-10-26T19:56:03.174Z,93.70
2022-10-26T19:58:31.418Z,92.81
2022-10-26T20:01:00.193Z,92.98
2022-10-26T20:03:28.970Z,93.83
2022-10-26T20:05:57.095Z,93.10
2022-10-26T20:08:24.528Z,92.82
2022-10-26T20:10:54.313Z,94.62
2022-10-26T20:13:20.979Z,94.31
2022-10-26T20:15:49.581Z,93.27
2022-10-26T20:18:16.650Z,93.09
2022-10-26T20:20:43.236Z,92.70
2022-10-26T20:23:10.863Z,92.36
2022-10-26T20:25:39.460Z,93.62
2022-10-26T20:28:06.660Z,93.68
2022-10-26T20:30:35.543Z,95.08
2022-10-26T20:33:02.134Z,95.62
2022-10-26T20:35:28.673Z,94.96
2022-10-26T20:37:56.297Z,94.06
2022-10-26T20:40:23.989Z,94.53
2022-10-26T20:42:52.873Z,95.51
2022-10-26T20:45:31.437Z,94.13
2022-10-26T20:47:59.898Z,93.58
2022-10-26T20:50:28.882Z,94.39
2022-10-26T20:53:10.599Z,94.24
2022-10-26T20:55:46.915Z,95.74
2022-10-26T20:58:42.140Z,93.97
2022-10-26T21:01:23.804Z,92.75
2022-10-26T21:03:50.984Z,93.89
2022-10-26T21:06:17.596Z,93.97
2022-10-26T21:08:44.309Z,94.06
2022-10-26T21:11:10.894Z,94.01
2022-10-26T21:13:37.469Z,96.00
2022-10-26T21:16:05.405Z,95.84
2022-10-26T21:18:33.308Z,97.11
2022-10-26T21:21:00.679Z,95.50
2022-10-26T21:23:31.869Z,95.91
2022-10-26T21:25:58.755Z,98.39
2022-10-26T21:28:27.177Z,98.71
2022-10-26T21:30:53.791Z,97.22
2022-10-26T21:33:22.679Z,97.78
2022-10-26T21:35:57.017Z,97.80
2022-10-26T21:38:23.584Z,98.69
2022-10-26T21:40:50.177Z,99.86
2022-10-26T21:43:18.918Z,98.18
2022-10-26T21:45:45.538Z,100.00
2022-10-26T21:48:12.123Z,99.35
2022-10-26T21:50:41.241Z,99.18
2022-10-26T21:53:07.807Z,98.57
2022-10-26T21:55:34.371Z,98.27
2022-10-26T22:00:32.411Z,99.74
2022-10-26T22:02:58.959Z,100.00
2022-10-26T22:05:25.542Z,100.00
2022-10-26T22:07:52.950Z,100.00
2022-10-26T22:10:19.702Z,100.00
2022-10-26T22:12:46.304Z,100.00
2022-10-26T22:15:12.906Z,100.00
2022-10-26T22:17:39.956Z,100.00
2022-10-26T22:20:09.296Z,100.00
2022-10-26T22:22:36.012Z,100.00
2022-10-26T22:25:03.827Z,100.00
2022-10-26T22:27:30.402Z,100.00
2022-10-26T22:29:56.966Z,100.00
2022-10-26T22:32:23.541Z,100.00
2022-10-26T22:34:53.152Z,100.00
2022-10-26T22:37:26.911Z,100.00
2022-10-26T22:39:53.769Z,100.00
2022-10-26T22:42:20.324Z,100.00
2022-10-26T22:44:46.915Z,100.00
2022-10-26T22:47:13.663Z,100.00
2022-10-26T22:49:40.314Z,100.00
2022-10-26T22:52:06.887Z,100.00
2022-10-26T22:54:33.459Z,100.00
2022-10-26T22:57:00.025Z,100.00
2022-10-26T22:59:26.603Z,100.00
2022-10-26T23:01:53.245Z,100.00
2022-10-26T23:04:20.089Z,100.00
2022-10-26T23:06:46.658Z,100.00
2022-10-26T23:09:13.314Z,100.00
2022-10-26T23:11:39.933Z,100.00
2022-10-26T23:14:06.573Z,100.00
2022-10-26T23:16:33.155Z,100.00
2022-10-26T23:18:59.881Z,100.00
2022-10-26T23:23:59.923Z,100.00
2022-10-26T23:26:26.768Z,100.00
2022-10-26T23:28:53.334Z,100.00
2022-10-26T23:31:22.899Z,100.00
2022-10-26T23:33:50.483Z,100.00
2022-10-26T23:36:17.211Z,100.00
2022-10-26T23:38:43.844Z,100.00
2022-10-26T23:41:12.820Z,100.00
2022-10-26T23:43:40.085Z,100.00
2022-10-26T23:46:07.159Z,100.00
2022-10-26T23:48:33.843Z,100.00
2022-10-26T23:51:00.419Z,100.00
2022-10-26T23:53:27.797Z,100.00
2022-10-26T23:55:54.433Z,100.00
2022-10-26T23:58:21.022Z,100.00
